createdAt,value
2019-04-11T00:00:55.580Z,7.10
2019-04-11T00:03:25.212Z,7.00
2019-04-11T00:05:54.921Z,6.90
2019-04-11T00:08:25.860Z,6.80
2019-04-11T00:10:57.543Z,6.70
2019-04-11T00:13:30.127Z,6.50
2019-04-11T00:15:59.243Z,6.40
2019-04-11T00:18:28.657Z,6.30
2019-04-11T00:20:58.295Z,6.20
2019-04-11T00:23:28.107Z,6.10
2019-04-11T00:25:58.031Z,6.00
2019-04-11T00:28:27.877Z,6.00
2019-04-11T00:30:58.696Z,5.90
2019-04-11T00:33:32.109Z,5.90
2019-04-11T00:36:02.687Z,5.80
2019-04-11T00:38:32.193Z,5.80
2019-04-11T00:41:01.718Z,5.80
2019-04-11T00:43:36.975Z,5.80
2019-04-11T00:46:02.929Z,5.90
2019-04-11T00:48:33.494Z,5.90
2019-04-11T00:51:03.547Z,5.90
2019-04-11T00:53:34.536Z,5.90
2019-04-11T00:56:06.250Z,6.00
2019-04-11T00:58:38.000Z,6.10
2019-04-11T01:01:07.460Z,6.20
2019-04-11T01:03:46.180Z,6.30
2019-04-11T01:06:18.236Z,6.30
2019-04-11T01:08:48.184Z,6.40
2019-04-11T01:11:17.763Z,6.40
2019-04-11T01:13:52.440Z,6.40
2019-04-11T01:16:21.464Z,6.40
2019-04-11T01:18:52.038Z,6.40
2019-04-11T01:21:21.615Z,6.50
2019-04-11T01:23:51.327Z,6.50
2019-04-11T01:26:21.227Z,6.60
2019-04-11T01:28:52.000Z,6.50
2019-04-11T01:31:23.479Z,6.50
2019-04-11T01:33:53.835Z,6.50
2019-04-11T01:36:23.708Z,6.50
2019-04-11T01:38:54.849Z,6.50
2019-04-11T01:41:24.634Z,6.50
2019-04-11T01:44:00.741Z,6.40
2019-04-11T01:46:26.355Z,6.40
2019-04-11T01:48:57.697Z,6.30
2019-04-11T01:51:27.054Z,6.20
2019-04-11T01:53:57.414Z,6.00
2019-04-11T01:56:27.370Z,5.90
2019-04-11T01:58:57.303Z,5.80
2019-04-11T02:01:28.636Z,5.90
2019-04-11T02:03:59.753Z,6.00
2019-04-11T02:06:29.875Z,6.10
2019-04-11T02:08:59.828Z,6.20
2019-04-11T02:11:29.727Z,6.30
2019-04-11T02:14:08.017Z,6.40
2019-04-11T02:16:30.358Z,6.40
2019-04-11T02:18:59.931Z,6.50
2019-04-11T02:21:29.580Z,6.50
2019-04-11T02:24:01.618Z,6.60
2019-04-11T02:26:33.555Z,6.60
2019-04-11T02:29:03.455Z,6.50
2019-04-11T02:31:34.785Z,6.60
2019-04-11T02:34:05.690Z,6.60
2019-04-11T02:36:36.410Z,6.60
2019-04-11T02:39:14.532Z,6.60
2019-04-11T02:41:39.818Z,6.60
2019-04-11T02:44:27.141Z,6.50
2019-04-11T02:46:48.263Z,6.50
2019-04-11T02:49:11.618Z,6.50
2019-04-11T02:51:42.828Z,6.50
2019-04-11T02:54:13.545Z,6.50
2019-04-11T02:56:45.055Z,6.40
2019-04-11T02:59:15.429Z,6.40
2019-04-11T03:01:46.439Z,6.40
2019-04-11T03:04:16.683Z,6.40
2019-04-11T03:06:47.793Z,6.30
2019-04-11T03:09:18.156Z,6.40
2019-04-11T03:11:49.455Z,6.40
2019-04-11T03:14:20.690Z,6.30
2019-04-11T03:16:59.728Z,6.30
2019-04-11T03:19:40.886Z,6.30
2019-04-11T03:21:54.312Z,6.20
2019-04-11T03:24:24.328Z,6.30
2019-04-11T03:26:56.430Z,6.30
2019-04-11T03:29:26.693Z,6.40
2019-04-11T03:32:37.209Z,6.30
2019-04-11T03:37:24.164Z,6.30
2019-04-11T03:39:52.872Z,6.20
2019-04-11T03:42:17.434Z,6.20
2019-04-11T03:44:39.519Z,6.20
2019-04-11T03:47:16.805Z,6.10
2019-04-11T03:49:43.339Z,6.10
2019-04-11T03:52:06.317Z,6.10
2019-04-11T03:54:40.135Z,6.00
2019-04-11T03:57:09.736Z,6.10
2019-04-11T03:59:40.738Z,6.00
2019-04-11T04:02:12.994Z,6.00
2019-04-11T04:04:43.658Z,6.00
2019-04-11T04:07:16.444Z,6.00
2019-04-11T04:09:46.149Z,6.00
2019-04-11T04:12:16.445Z,6.00
2019-04-11T04:14:49.385Z,6.00
2019-04-11T04:17:21.371Z,6.00
2019-04-11T04:19:54.291Z,6.00
2019-04-11T04:22:25.173Z,6.10
2019-04-11T04:24:55.882Z,6.00
2019-04-11T04:27:49.186Z,6.00
2019-04-11T04:30:18.168Z,6.00
2019-04-11T04:32:49.332Z,5.90
2019-04-11T04:35:21.393Z,5.90
2019-04-11T04:37:51.519Z,5.80
2019-04-11T04:40:35.555Z,5.80
2019-04-11T04:42:55.451Z,5.80
2019-04-11T04:45:23.901Z,5.80
2019-04-11T04:48:02.565Z,5.80
2019-04-11T04:50:28.513Z,5.80
2019-04-11T04:52:58.166Z,5.80
2019-04-11T04:55:30.297Z,5.80
2019-04-11T04:58:01.802Z,5.80
2019-04-11T05:00:31.919Z,5.80
2019-04-11T05:03:02.392Z,5.80
2019-04-11T05:05:35.748Z,5.80
2019-04-11T05:08:06.172Z,5.90
2019-04-11T05:10:35.991Z,5.90
2019-04-11T05:13:07.849Z,5.90
2019-04-11T05:15:36.748Z,5.90
2019-04-11T05:18:06.271Z,5.90
2019-04-11T05:20:36.407Z,5.90
2019-04-11T05:23:06.347Z,5.90
2019-04-11T05:25:36.953Z,5.90
2019-04-11T05:28:06.626Z,6.00
2019-04-11T05:30:36.386Z,5.90
2019-04-11T05:33:06.208Z,5.90
2019-04-11T05:35:36.274Z,6.00
2019-04-11T05:38:05.774Z,5.90
2019-04-11T05:40:35.815Z,6.00
2019-04-11T05:43:05.984Z,6.00
2019-04-11T05:45:35.998Z,6.00
2019-04-11T05:48:09.318Z,6.00
2019-04-11T05:50:44.250Z,6.00
2019-04-11T05:53:10.671Z,6.00
2019-04-11T05:55:43.332Z,5.90
2019-04-11T05:58:14.234Z,5.90
2019-04-11T06:00:44.997Z,5.80
2019-04-11T06:03:15.495Z,5.80
2019-04-11T06:05:46.476Z,5.80
2019-04-11T06:08:22.658Z,5.80
2019-04-11T06:10:50.459Z,5.90
2019-04-11T06:13:22.685Z,5.90
2019-04-11T06:15:53.522Z,5.90
2019-04-11T06:18:31.100Z,6.00
2019-04-11T06:20:57.837Z,5.90
2019-04-11T06:23:29.605Z,6.00
2019-04-11T06:26:00.813Z,5.90
2019-04-11T06:28:32.253Z,5.90
2019-04-11T06:31:04.568Z,5.90
2019-04-11T06:33:36.525Z,5.80
2019-04-11T06:36:07.454Z,5.70
2019-04-11T06:38:38.649Z,5.70
2019-04-11T06:41:10.335Z,5.80
2019-04-11T06:43:42.488Z,5.80
2019-04-11T06:46:13.657Z,5.70
2019-04-11T06:48:45.498Z,5.70
2019-04-11T06:51:17.720Z,5.70
2019-04-11T06:53:48.722Z,5.70
2019-04-11T06:56:20.878Z,5.80
2019-04-11T06:58:53.603Z,5.80
2019-04-11T07:01:25.766Z,5.90
2019-04-11T07:03:57.537Z,6.00
2019-04-11T07:06:29.404Z,6.00
2019-04-11T07:09:00.982Z,6.00
2019-04-11T07:11:32.153Z,6.10
2019-04-11T07:14:04.113Z,6.10
2019-04-11T07:16:36.244Z,6.10
2019-04-11T07:19:07.568Z,6.20
2019-04-11T07:21:37.103Z,6.20
2019-04-11T07:24:08.112Z,6.30
2019-04-11T07:26:39.411Z,6.20
2019-04-11T07:29:10.778Z,6.30
2019-04-11T07:31:42.034Z,6.30
2019-04-11T07:34:13.070Z,6.30
2019-04-11T07:36:44.133Z,6.30
2019-04-11T07:39:14.636Z,6.30
2019-04-11T07:41:45.656Z,6.40
2019-04-11T07:44:17.613Z,6.40
2019-04-11T07:46:47.719Z,6.50
2019-04-11T07:49:19.710Z,6.50
2019-04-11T07:51:51.289Z,6.50
2019-04-11T07:54:20.804Z,6.50
2019-04-11T07:56:52.781Z,6.60
2019-04-11T07:59:25.010Z,6.60
2019-04-11T08:01:56.348Z,6.60
2019-04-11T08:04:27.763Z,6.60
2019-04-11T08:06:59.124Z,6.60
2019-04-11T08:09:29.037Z,6.70
2019-04-11T08:12:00.375Z,6.70
2019-04-11T08:14:32.759Z,6.80
2019-04-11T08:17:05.389Z,6.90
2019-04-11T08:19:42.761Z,7.00
2019-04-11T08:22:12.972Z,7.20
2019-04-11T08:24:44.902Z,7.40
2019-04-11T08:27:16.090Z,7.70
2019-04-11T08:29:48.837Z,7.80
2019-04-11T08:32:19.988Z,8.00
2019-04-11T08:34:51.328Z,8.20
2019-04-11T08:37:23.287Z,8.30
2019-04-11T08:39:55.503Z,8.40
2019-04-11T08:42:27.489Z,8.60
2019-04-11T08:44:58.519Z,8.80
2019-04-11T08:47:41.760Z,8.90
2019-04-11T08:50:02.118Z,9.10
2019-04-11T08:52:33.328Z,9.20
2019-04-11T08:55:04.436Z,9.40
2019-04-11T08:57:36.158Z,9.60
2019-04-11T09:00:08.231Z,9.70
2019-04-11T09:02:39.059Z,9.80
2019-04-11T09:05:14.774Z,10.00
2019-04-11T09:07:43.574Z,10.10
2019-04-11T09:10:15.685Z,10.30
2019-04-11T09:12:47.027Z,10.50
2019-04-11T09:15:19.110Z,10.40
2019-04-11T09:17:59.059Z,10.60
2019-04-11T09:20:23.348Z,10.80
2019-04-11T09:22:55.479Z,11.00
2019-04-11T09:25:27.419Z,11.00
2019-04-11T09:28:00.684Z,11.00
2019-04-11T09:30:32.659Z,11.10
2019-04-11T09:33:03.064Z,11.30
2019-04-11T09:35:35.254Z,11.40
2019-04-11T09:38:06.545Z,11.40
2019-04-11T09:40:37.888Z,11.40
2019-04-11T09:43:09.361Z,11.40
2019-04-11T09:45:42.368Z,11.40
2019-04-11T09:48:19.418Z,11.30
2019-04-11T09:50:49.407Z,11.30
2019-04-11T09:53:20.742Z,11.30
2019-04-11T09:55:51.858Z,11.40
2019-04-11T09:58:23.227Z,11.40
2019-04-11T10:00:54.977Z,11.70
2019-04-11T10:03:26.089Z,12.00
2019-04-11T10:05:57.086Z,12.10
2019-04-11T10:08:28.144Z,12.20
2019-04-11T10:10:59.671Z,12.10
2019-04-11T10:13:31.026Z,12.20
2019-04-11T10:16:03.989Z,12.10
2019-04-11T10:18:38.632Z,11.90
2019-04-11T10:21:09.291Z,11.80
2019-04-11T10:23:40.941Z,11.90
2019-04-11T10:26:11.571Z,11.60
2019-04-11T10:28:43.905Z,11.40
2019-04-11T10:31:15.508Z,11.20
2019-04-11T10:33:44.934Z,11.10
2019-04-11T10:36:15.884Z,11.10
2019-04-11T10:38:45.410Z,11.30
2019-04-11T10:41:17.111Z,11.70
2019-04-11T10:43:47.564Z,11.80
2019-04-11T10:46:19.586Z,11.70
2019-04-11T10:48:50.432Z,11.50
2019-04-11T10:51:30.251Z,11.40
2019-04-11T10:53:59.738Z,11.50
2019-04-11T10:56:30.752Z,11.60
2019-04-11T10:59:00.121Z,11.50
2019-04-11T11:01:31.734Z,11.30
2019-04-11T11:04:03.393Z,11.00
2019-04-11T11:06:35.752Z,11.00
2019-04-11T11:09:08.708Z,10.90
2019-04-11T11:11:40.761Z,10.90
2019-04-11T11:14:12.354Z,10.90
2019-04-11T11:16:45.432Z,11.00
2019-04-11T11:19:33.567Z,11.00
2019-04-11T11:21:49.202Z,10.90
2019-04-11T11:24:21.772Z,10.80
2019-04-11T11:26:55.567Z,10.70
2019-04-11T11:29:24.737Z,10.60
2019-04-11T11:31:56.579Z,10.70
2019-04-11T11:34:28.404Z,10.70
2019-04-11T11:37:00.648Z,10.90
2019-04-11T11:39:31.104Z,11.00
2019-04-11T11:42:02.441Z,11.10
2019-04-11T11:44:33.426Z,11.20
2019-04-11T11:47:05.479Z,11.20
2019-04-11T11:49:45.812Z,11.20
2019-04-11T11:52:08.851Z,11.10
2019-04-11T11:54:40.327Z,11.00
2019-04-11T11:57:11.262Z,11.00
2019-04-11T11:59:42.863Z,11.00
2019-04-11T12:02:17.262Z,11.00
2019-04-11T12:04:46.464Z,11.00
2019-04-11T12:07:18.851Z,11.10
2019-04-11T12:09:50.947Z,11.20
2019-04-11T12:12:22.091Z,11.20
2019-04-11T12:14:53.777Z,11.20
2019-04-11T12:17:23.043Z,11.20
2019-04-11T12:19:55.017Z,11.10
2019-04-11T12:22:25.317Z,11.10
2019-04-11T12:24:58.448Z,11.00
2019-04-11T12:27:31.111Z,11.00
2019-04-11T12:30:04.448Z,10.80
2019-04-11T12:32:35.029Z,10.70
2019-04-11T12:35:08.141Z,10.70
2019-04-11T12:37:41.308Z,10.90
2019-04-11T12:40:12.457Z,11.20
2019-04-11T12:42:42.779Z,11.30
2019-04-11T12:45:13.746Z,11.20
2019-04-11T12:47:44.260Z,11.20
2019-04-11T12:50:15.600Z,11.00
2019-04-11T12:52:46.728Z,10.80
2019-04-11T12:55:17.729Z,10.70
2019-04-11T12:57:48.836Z,10.60
2019-04-11T13:00:18.668Z,10.40
2019-04-11T13:02:50.636Z,10.50
2019-04-11T13:05:21.713Z,10.30
2019-04-11T13:07:52.696Z,10.30
2019-04-11T13:10:24.087Z,10.20
2019-04-11T13:12:54.971Z,10.30
2019-04-11T13:15:25.985Z,10.40
2019-04-11T13:17:57.128Z,10.40
2019-04-11T13:20:28.101Z,10.50
2019-04-11T13:22:59.100Z,10.50
2019-04-11T13:25:30.239Z,10.50
2019-04-11T13:27:59.692Z,10.50
2019-04-11T13:30:30.735Z,10.40
2019-04-11T13:33:02.386Z,10.40
2019-04-11T13:35:33.570Z,10.40
2019-04-11T13:38:03.522Z,10.40
2019-04-11T13:40:34.668Z,10.40
2019-04-11T13:43:04.447Z,10.40
2019-04-11T13:45:35.664Z,10.50
2019-04-11T13:48:09.705Z,10.50
2019-04-11T13:50:39.247Z,10.60
2019-04-11T13:53:10.582Z,10.60
2019-04-11T13:55:42.027Z,10.70
2019-04-11T13:58:11.441Z,10.70
2019-04-11T14:00:42.502Z,10.80
2019-04-11T14:03:13.605Z,10.90
2019-04-11T14:05:43.627Z,10.90
2019-04-11T14:08:14.617Z,11.10
2019-04-11T14:10:45.620Z,11.20
2019-04-11T14:13:15.007Z,11.40
2019-04-11T14:15:46.125Z,11.60
2019-04-11T14:18:17.219Z,11.80
2019-04-11T14:20:48.307Z,12.00
2019-04-11T14:23:19.324Z,12.10
2019-04-11T14:25:50.400Z,12.10
2019-04-11T14:28:24.161Z,12.00
2019-04-11T14:30:54.041Z,12.10
2019-04-11T14:33:27.194Z,12.10
2019-04-11T14:35:57.870Z,12.20
2019-04-11T14:38:32.043Z,12.10
2019-04-11T14:41:02.147Z,12.20
2019-04-11T14:43:33.436Z,12.40
2019-04-11T14:46:06.882Z,12.40
2019-04-11T14:48:37.853Z,12.20
2019-04-11T14:51:10.120Z,12.30
2019-04-11T14:53:41.022Z,12.10
2019-04-11T14:56:12.005Z,12.20
2019-04-11T14:58:43.158Z,12.30
2019-04-11T15:01:14.151Z,12.20
2019-04-11T15:03:45.203Z,12.20
2019-04-11T15:06:16.211Z,12.10
2019-04-11T15:08:47.638Z,12.10
2019-04-11T15:11:19.282Z,12.10
2019-04-11T15:13:50.349Z,12.00
2019-04-11T15:16:21.423Z,11.90
2019-04-11T15:18:52.602Z,11.90
2019-04-11T15:21:23.685Z,11.80
2019-04-11T15:23:53.566Z,11.50
2019-04-11T15:26:24.683Z,11.40
2019-04-11T15:28:55.739Z,11.10
2019-04-11T15:31:25.543Z,10.90
2019-04-11T15:33:56.689Z,10.80
2019-04-11T15:36:28.462Z,10.70
2019-04-11T15:38:59.963Z,10.70
2019-04-11T15:41:31.063Z,10.60
2019-04-11T15:44:02.217Z,10.60
2019-04-11T15:46:33.186Z,10.50
2019-04-11T15:49:04.349Z,10.40
2019-04-11T15:51:35.406Z,10.40
2019-04-11T15:54:07.013Z,10.40
2019-04-11T15:56:41.703Z,10.60
2019-04-11T15:59:12.982Z,10.60
2019-04-11T16:01:43.568Z,10.60
2019-04-11T16:04:14.516Z,10.60
2019-04-11T16:06:45.680Z,10.60
2019-04-11T16:09:16.058Z,10.60
2019-04-11T16:11:47.743Z,10.70
2019-04-11T16:14:19.163Z,10.60
2019-04-11T16:16:50.223Z,10.30
2019-04-11T16:19:21.289Z,10.10
2019-04-11T16:21:54.687Z,10.00
2019-04-11T16:24:27.322Z,10.00
2019-04-11T16:26:57.573Z,10.10
2019-04-11T16:29:28.566Z,10.00
2019-04-11T16:31:59.677Z,9.90
2019-04-11T16:34:30.794Z,9.90
2019-04-11T16:37:00.236Z,9.90
2019-04-11T16:39:32.994Z,9.80
2019-04-11T16:42:03.962Z,9.80
2019-04-11T16:44:34.974Z,9.80
2019-04-11T16:47:08.264Z,9.70
2019-04-11T16:49:37.103Z,9.70
2019-04-11T16:52:08.374Z,9.70
2019-04-11T16:54:39.764Z,9.60
2019-04-11T16:57:08.830Z,9.60
2019-04-11T16:59:38.360Z,9.50
2019-04-11T17:02:07.847Z,9.50
2019-04-11T17:04:37.499Z,9.40
2019-04-11T17:07:08.599Z,9.30
2019-04-11T17:09:39.571Z,9.20
2019-04-11T17:12:10.102Z,9.10
2019-04-11T17:14:39.510Z,9.00
2019-04-11T17:17:14.945Z,9.00
2019-04-11T17:19:40.143Z,8.90
2019-04-11T17:22:09.498Z,8.90
2019-04-11T17:24:39.004Z,8.80
2019-04-11T17:27:08.329Z,8.70
2019-04-11T17:29:37.803Z,8.70
2019-04-11T17:32:07.205Z,8.60
2019-04-11T17:34:37.901Z,8.60
2019-04-11T17:37:07.399Z,8.60
2019-04-11T17:39:40.174Z,8.50
2019-04-11T17:42:10.879Z,8.50
2019-04-11T17:44:40.820Z,8.50
2019-04-11T17:47:10.311Z,8.40
2019-04-11T17:49:39.746Z,8.40
2019-04-11T17:52:09.337Z,8.30
2019-04-11T17:54:38.818Z,8.30
2019-04-11T17:57:08.676Z,8.30
2019-04-11T17:59:38.106Z,8.30
2019-04-11T18:02:10.411Z,8.20
2019-04-11T18:04:44.028Z,8.20
2019-04-11T18:07:11.888Z,8.20
2019-04-11T18:09:41.364Z,8.10
2019-04-11T18:12:10.717Z,8.20
2019-04-11T18:14:40.122Z,8.10
2019-04-11T18:17:09.664Z,8.10
2019-04-11T18:19:39.165Z,8.00
2019-04-11T18:22:13.295Z,7.90
2019-04-11T18:24:39.914Z,7.90
2019-04-11T18:27:09.393Z,7.80
2019-04-11T18:29:47.078Z,7.80
2019-04-11T18:32:18.327Z,7.90
2019-04-11T18:34:47.831Z,7.90
2019-04-11T18:37:17.203Z,7.90
2019-04-11T18:39:46.682Z,8.00
2019-04-11T18:42:16.093Z,7.90
2019-04-11T18:44:45.601Z,7.90
2019-04-11T18:47:15.042Z,7.80
2019-04-11T18:49:44.515Z,7.80
2019-04-11T18:52:19.744Z,7.80
2019-04-11T18:55:00.032Z,7.80
2019-04-11T18:58:01.763Z,7.70
2019-04-11T19:00:52.285Z,7.60
2019-04-11T19:04:12.787Z,7.60
2019-04-11T19:07:08.109Z,7.60
2019-04-11T19:10:14.346Z,7.60
2019-04-11T19:16:26.631Z,7.70
2019-04-11T19:19:29.662Z,7.70
2019-04-11T19:22:37.437Z,7.70
2019-04-11T19:28:44.809Z,7.60
2019-04-11T19:35:18.914Z,7.50
2019-04-11T19:41:18.347Z,7.40
2019-04-11T19:43:49.295Z,7.40
2019-04-11T19:46:20.470Z,7.40
2019-04-11T19:48:50.079Z,7.40
2019-04-11T19:54:47.142Z,7.30
2019-04-11T19:57:16.633Z,7.20
2019-04-11T19:59:45.942Z,7.30
2019-04-11T20:02:15.355Z,7.30
2019-04-11T20:04:46.645Z,7.30
2019-04-11T20:07:15.964Z,7.30
2019-04-11T20:09:45.412Z,7.20
2019-04-11T20:12:14.921Z,7.20
2019-04-11T20:14:45.980Z,7.10
2019-04-11T20:17:18.907Z,7.10
2019-04-11T20:19:46.701Z,7.10
2019-04-11T20:22:16.080Z,7.10
2019-04-11T20:24:46.737Z,7.10
2019-04-11T20:27:20.001Z,7.20
2019-04-11T20:29:51.070Z,7.10
2019-04-11T20:32:18.717Z,7.10
2019-04-11T20:34:48.204Z,7.10
2019-04-11T20:37:17.684Z,7.00
2019-04-11T20:39:47.580Z,6.90
2019-04-11T20:42:17.422Z,7.00
2019-04-11T20:44:46.842Z,6.90
2019-04-11T20:47:16.912Z,7.00
2019-04-11T20:49:48.289Z,7.00
2019-04-11T20:52:19.072Z,7.00
2019-04-11T20:54:49.524Z,6.90
2019-04-11T20:57:25.723Z,6.90
2019-04-11T20:59:50.078Z,6.90
2019-04-11T21:02:19.425Z,7.00
2019-04-11T21:04:48.884Z,7.00
2019-04-11T21:07:25.261Z,6.90
2019-04-11T21:09:54.958Z,6.90
2019-04-11T21:12:24.471Z,6.80
2019-04-11T21:14:53.787Z,6.80
2019-04-11T21:17:23.198Z,6.80
2019-04-11T21:19:53.272Z,6.70
2019-04-11T21:22:24.188Z,6.70
2019-04-11T21:24:54.414Z,6.70
2019-04-11T21:27:23.837Z,6.70
2019-04-11T21:29:53.348Z,6.70
2019-04-11T21:32:22.737Z,6.70
2019-04-11T21:34:52.032Z,6.70
2019-04-11T21:37:21.513Z,6.60
2019-04-11T21:39:52.534Z,6.60
2019-04-11T21:42:22.018Z,6.60
2019-04-11T21:44:51.489Z,6.60
2019-04-11T21:47:21.060Z,6.60
2019-04-11T21:49:50.525Z,6.60
2019-04-11T21:52:19.897Z,6.50
2019-04-11T21:54:49.293Z,6.50
2019-04-11T21:57:19.265Z,6.50
2019-04-11T21:59:51.232Z,6.50
2019-04-11T22:02:23.966Z,6.50
2019-04-11T22:04:51.418Z,6.50
2019-04-11T22:07:20.906Z,6.40
2019-04-11T22:09:50.216Z,6.40
2019-04-11T22:12:19.595Z,6.40
2019-04-11T22:14:49.124Z,6.40
2019-04-11T22:17:18.688Z,6.30
2019-04-11T22:19:48.163Z,6.30
2019-04-11T22:22:17.637Z,6.30
2019-04-11T22:24:46.984Z,6.30
2019-04-11T22:27:16.387Z,6.30
2019-04-11T22:29:45.735Z,6.20
2019-04-11T22:32:15.246Z,6.20
2019-04-11T22:34:46.165Z,6.20
2019-04-11T22:37:15.547Z,6.20
2019-04-11T22:39:45.007Z,6.20
2019-04-11T22:42:14.395Z,6.20
2019-04-11T22:44:43.936Z,6.10
2019-04-11T22:47:13.431Z,6.10
2019-04-11T22:49:43.080Z,6.10
2019-04-11T22:52:12.484Z,6.00
2019-04-11T22:54:45.361Z,6.00
2019-04-11T22:57:14.985Z,6.00
2019-04-11T22:59:45.325Z,5.90
2019-04-11T23:02:17.051Z,5.90
2019-04-11T23:04:47.581Z,5.90
2019-04-11T23:07:17.884Z,5.80
2019-04-11T23:09:49.047Z,5.80
2019-04-11T23:12:19.337Z,5.80
2019-04-11T23:14:48.726Z,5.80
2019-04-11T23:17:18.260Z,5.70
2019-04-11T23:19:47.640Z,5.60
2019-04-11T23:22:17.111Z,5.60
2019-04-11T23:24:46.451Z,5.50
2019-04-11T23:27:15.976Z,5.40
2019-04-11T23:29:47.082Z,5.40
2019-04-11T23:32:16.444Z,5.40
2019-04-11T23:34:45.951Z,5.30
2019-04-11T23:37:15.412Z,5.20
2019-04-11T23:39:44.902Z,5.20
2019-04-11T23:42:14.278Z,5.10
2019-04-11T23:44:43.598Z,5.10
2019-04-11T23:47:12.958Z,5.00
2019-04-11T23:49:42.584Z,5.00
2019-04-11T23:52:12.028Z,4.90
2019-04-11T23:54:41.507Z,4.90
2019-04-11T23:57:10.924Z,4.70
2019-04-11T23:59:40.332Z,4.60
